sensor_id;sensor_type;location;lat;lon;timestamp;pressure;altitude;pressure_sealevel;temperature;humidity
9717;BME280;4897;43.570;27.832;2022-07-29T00:00:48;99167.94;;;20.10;100.00
9717;BME280;4897;43.570;27.832;2022-07-29T00:03:14;99159.81;;;19.95;100.00
9717;BME280;4897;43.570;27.832;2022-07-29T00:05:41;99161.53;;;19.81;100.00
9717;BME280;4897;43.570;27.832;2022-07-29T00:08:10;99157.59;;;19.69;100.00
9717;BME280;4897;43.570;27.832;2022-07-29T00:10:37;99154.59;;;19.64;100.00
9717;BME280;4897;43.570;27.832;2022-07-29T00:13:04;99156.56;;;19.70;100.00
9717;BME280;4897;43.570;27.832;2022-07-29T00:15:31;99137.28;;;19.65;100.00
9717;BME280;4897;43.570;27.832;2022-07-29T00:17:58;99160.94;;;19.71;100.00
9717;BME280;4897;43.570;27.832;2022-07-29T00:20:25;99149.72;;;19.74;100.00
9717;BME280;4897;43.570;27.832;2022-07-29T00:22:52;99145.63;;;19.64;100.00
9717;BME280;4897;43.570;27.832;2022-07-29T00:25:20;99146.94;;;19.68;100.00
9717;BME280;4897;43.570;27.832;2022-07-29T00:27:47;99064.78;;;19.15;100.00
9717;BME280;4897;43.570;27.832;2022-07-29T00:30:17;99073.44;;;19.34;100.00
9717;BME280;4897;43.570;27.832;2022-07-29T00:32:50;99139.53;;;19.76;100.00
9717;BME280;4897;43.570;27.832;2022-07-29T00:35:17;99153.84;;;19.85;100.00
9717;BME280;4897;43.570;27.832;2022-07-29T00:38:01;99149.25;;;19.85;100.00
9717;BME280;4897;43.570;27.832;2022-07-29T00:40:29;99152.09;;;19.77;100.00
9717;BME280;4897;43.570;27.832;2022-07-29T00:42:56;99145.31;;;19.73;100.00
9717;BME280;4897;43.570;27.832;2022-07-29T00:45:23;99145.16;;;19.60;100.00
9717;BME280;4897;43.570;27.832;2022-07-29T00:47:50;99020.13;;;18.82;100.00
9717;BME280;4897;43.570;27.832;2022-07-29T00:50:18;99141.69;;;19.66;100.00
9717;BME280;4897;43.570;27.832;2022-07-29T00:52:45;99064.53;;;19.25;100.00
9717;BME280;4897;43.570;27.832;2022-07-29T00:55:13;99149.38;;;19.63;100.00
9717;BME280;4897;43.570;27.832;2022-07-29T00:57:46;99146.84;;;19.61;100.00
9717;BME280;4897;43.570;27.832;2022-07-29T01:00:15;99142.56;;;19.52;100.00
9717;BME280;4897;43.570;27.832;2022-07-29T01:02:44;99128.13;;;19.37;100.00
9717;BME280;4897;43.570;27.832;2022-07-29T01:05:13;99118.59;;;19.41;100.00
9717;BME280;4897;43.570;27.832;2022-07-29T01:07:41;99113.72;;;19.51;100.00
9717;BME280;4897;43.570;27.832;2022-07-29T01:10:09;99153.56;;;19.65;100.00
9717;BME280;4897;43.570;27.832;2022-07-29T01:12:39;99151.59;;;19.59;100.00
9717;BME280;4897;43.570;27.832;2022-07-29T01:15:08;99152.16;;;19.55;100.00
9717;BME280;4897;43.570;27.832;2022-07-29T01:17:41;99138.97;;;19.66;100.00
9717;BME280;4897;43.570;27.832;2022-07-29T01:20:14;99135.53;;;19.58;100.00
9717;BME280;4897;43.570;27.832;2022-07-29T01:23:07;99139.25;;;19.57;100.00
9717;BME280;4897;43.570;27.832;2022-07-29T01:25:53;99137.94;;;19.53;100.00
9717;BME280;4897;43.570;27.832;2022-07-29T01:28:48;99133.75;;;19.50;100.00
9717;BME280;4897;43.570;27.832;2022-07-29T01:31:21;99137.94;;;19.53;100.00
9717;BME280;4897;43.570;27.832;2022-07-29T01:34:01;99088.53;;;19.13;100.00
9717;BME280;4897;43.570;27.832;2022-07-29T01:36:32;99127.00;;;19.46;100.00
9717;BME280;4897;43.570;27.832;2022-07-29T01:39:06;99123.56;;;19.38;100.00
9717;BME280;4897;43.570;27.832;2022-07-29T01:41:37;99121.22;;;19.49;100.00
9717;BME280;4897;43.570;27.832;2022-07-29T01:44:13;99143.00;;;19.70;100.00
9717;BME280;4897;43.570;27.832;2022-07-29T01:46:45;99128.13;;;19.37;100.00
9717;BME280;4897;43.570;27.832;2022-07-29T01:49:18;99124.25;;;19.17;100.00
9717;BME280;4897;43.570;27.832;2022-07-29T01:51:50;99142.06;;;18.97;100.00
9717;BME280;4897;43.570;27.832;2022-07-29T01:54:20;99129.94;;;18.70;100.00
9717;BME280;4897;43.570;27.832;2022-07-29T01:56:51;99125.16;;;18.58;100.00
9717;BME280;4897;43.570;27.832;2022-07-29T01:59:21;99124.22;;;18.43;100.00
9717;BME280;4897;43.570;27.832;2022-07-29T02:01:50;99151.63;;;18.48;100.00
9717;BME280;4897;43.570;27.832;2022-07-29T02:04:20;99156.19;;;18.47;100.00
9717;BME280;4897;43.570;27.832;2022-07-29T02:06:49;99160.13;;;18.36;100.00
9717;BME280;4897;43.570;27.832;2022-07-29T02:09:17;99154.53;;;18.38;100.00
9717;BME280;4897;43.570;27.832;2022-07-29T02:11:49;99153.03;;;18.35;100.00
9717;BME280;4897;43.570;27.832;2022-07-29T02:14:18;99152.47;;;18.48;100.00
9717;BME280;4897;43.570;27.832;2022-07-29T02:16:47;99141.75;;;18.55;100.00
9717;BME280;4897;43.570;27.832;2022-07-29T02:19:17;99145.50;;;18.54;100.00
9717;BME280;4897;43.570;27.832;2022-07-29T02:21:45;99129.25;;;18.54;100.00
9717;BME280;4897;43.570;27.832;2022-07-29T02:24:14;99137.00;;;18.57;100.00
9717;BME280;4897;43.570;27.832;2022-07-29T02:26:43;99146.16;;;18.56;100.00
9717;BME280;4897;43.570;27.832;2022-07-29T02:29:12;99132.59;;;18.56;100.00
9717;BME280;4897;43.570;27.832;2022-07-29T02:31:43;99119.50;;;18.45;100.00
9717;BME280;4897;43.570;27.832;2022-07-29T02:34:15;99150.53;;;18.57;100.00
9717;BME280;4897;43.570;27.832;2022-07-29T02:36:44;99136.22;;;18.71;100.00
9717;BME280;4897;43.570;27.832;2022-07-29T02:39:13;99135.84;;;18.74;100.00
9717;BME280;4897;43.570;27.832;2022-07-29T02:41:43;99142.56;;;18.78;100.00
9717;BME280;4897;43.570;27.832;2022-07-29T02:44:12;99146.78;;;18.80;100.00
9717;BME280;4897;43.570;27.832;2022-07-29T02:46:45;99147.78;;;18.65;100.00
9717;BME280;4897;43.570;27.832;2022-07-29T02:49:17;99147.47;;;18.60;100.00
9717;BME280;4897;43.570;27.832;2022-07-29T02:51:49;99144.88;;;18.66;100.00
9717;BME280;4897;43.570;27.832;2022-07-29T02:54:23;99134.78;;;18.60;100.00
9717;BME280;4897;43.570;27.832;2022-07-29T02:56:52;99157.88;;;18.71;100.00
9717;BME280;4897;43.570;27.832;2022-07-29T02:59:24;99148.59;;;18.65;100.00
9717;BME280;4897;43.570;27.832;2022-07-29T03:01:55;99149.91;;;18.69;100.00
9717;BME280;4897;43.570;27.832;2022-07-29T03:04:24;99139.66;;;18.65;100.00
9717;BME280;4897;43.570;27.832;2022-07-29T03:06:55;99150.78;;;18.70;100.00
9717;BME280;4897;43.570;27.832;2022-07-29T03:09:24;99120.75;;;18.57;100.00
9717;BME280;4897;43.570;27.832;2022-07-29T03:11:52;99158.47;;;18.81;100.00
9717;BME280;4897;43.570;27.832;2022-07-29T03:14:20;99148.84;;;18.78;100.00
9717;BME280;4897;43.570;27.832;2022-07-29T03:16:48;99133.66;;;18.69;100.00
9717;BME280;4897;43.570;27.832;2022-07-29T03:19:16;99157.41;;;18.90;100.00
9717;BME280;4897;43.570;27.832;2022-07-29T03:21:45;99156.09;;;19.00;100.00
9717;BME280;4897;43.570;27.832;2022-07-29T03:24:24;99155.81;;;18.95;100.00
9717;BME280;4897;43.570;27.832;2022-07-29T03:26:52;99165.34;;;18.91;100.00
9717;BME280;4897;43.570;27.832;2022-07-29T03:29:19;99175.13;;;18.92;100.00
9717;BME280;4897;43.570;27.832;2022-07-29T03:31:46;99161.47;;;18.86;100.00
9717;BME280;4897;43.570;27.832;2022-07-29T03:34:13;99174.63;;;19.11;100.00
9717;BME280;4897;43.570;27.832;2022-07-29T03:36:40;99179.84;;;19.13;100.00
9717;BME280;4897;43.570;27.832;2022-07-29T03:39:09;99165.75;;;19.17;100.00
9717;BME280;4897;43.570;27.832;2022-07-29T03:41:47;99124.22;;;19.02;100.00
9717;BME280;4897;43.570;27.832;2022-07-29T03:47:24;99157.31;;;19.35;100.00
9717;BME280;4897;43.570;27.832;2022-07-29T03:50:06;99172.66;;;19.57;100.00
9717;BME280;4897;43.570;27.832;2022-07-29T03:52:54;99171.25;;;19.76;100.00
9717;BME280;4897;43.570;27.832;2022-07-29T03:55:23;99162.19;;;19.83;100.00
9717;BME280;4897;43.570;27.832;2022-07-29T03:57:51;99155.16;;;19.89;100.00
9717;BME280;4897;43.570;27.832;2022-07-29T04:00:18;99150.16;;;19.92;100.00
9717;BME280;4897;43.570;27.832;2022-07-29T04:02:45;99153.06;;;20.06;100.00
9717;BME280;4897;43.570;27.832;2022-07-29T04:05:16;99157.34;;;20.29;100.00
9717;BME280;4897;43.570;27.832;2022-07-29T04:07:52;99163.75;;;20.43;100.00
9717;BME280;4897;43.570;27.832;2022-07-29T04:10:20;99151.59;;;20.39;100.00
9717;BME280;4897;43.570;27.832;2022-07-29T04:12:59;99159.63;;;20.47;100.00
9717;BME280;4897;43.570;27.832;2022-07-29T04:15:26;99147.59;;;20.56;100.00
9717;BME280;4897;43.570;27.832;2022-07-29T04:17:54;99149.53;;;20.62;100.00
9717;BME280;4897;43.570;27.832;2022-07-29T04:20:24;99111.81;;;20.31;100.00
9717;BME280;4897;43.570;27.832;2022-07-29T04:22:52;99154.81;;;20.49;100.00
9717;BME280;4897;43.570;27.832;2022-07-29T04:25:19;99140.88;;;20.52;100.00
9717;BME280;4897;43.570;27.832;2022-07-29T04:27:46;99160.13;;;20.57;100.00
9717;BME280;4897;43.570;27.832;2022-07-29T04:30:37;99155.63;;;20.64;100.00
9717;BME280;4897;43.570;27.832;2022-07-29T04:33:05;99150.97;;;20.79;100.00
9717;BME280;4897;43.570;27.832;2022-07-29T04:35:35;99146.31;;;21.01;100.00
9717;BME280;4897;43.570;27.832;2022-07-29T04:38:03;99152.34;;;21.17;100.00
9717;BME280;4897;43.570;27.832;2022-07-29T04:40:30;99159.66;;;21.44;100.00
9717;BME280;4897;43.570;27.832;2022-07-29T04:42:59;99158.59;;;21.73;100.00
9717;BME280;4897;43.570;27.832;2022-07-29T04:45:26;99159.13;;;21.90;100.00
9717;BME280;4897;43.570;27.832;2022-07-29T04:47:54;99133.78;;;21.89;100.00
9717;BME280;4897;43.570;27.832;2022-07-29T04:50:21;99154.22;;;22.13;100.00
9717;BME280;4897;43.570;27.832;2022-07-29T04:52:48;99137.88;;;22.26;100.00
9717;BME280;4897;43.570;27.832;2022-07-29T04:55:15;99140.47;;;22.34;100.00
9717;BME280;4897;43.570;27.832;2022-07-29T04:58:04;99110.25;;;22.29;100.00
9717;BME280;4897;43.570;27.832;2022-07-29T05:00:31;99151.44;;;22.60;100.00
9717;BME280;4897;43.570;27.832;2022-07-29T05:02:59;99127.31;;;22.70;100.00
9717;BME280;4897;43.570;27.832;2022-07-29T05:05:26;99140.16;;;22.96;100.00
9717;BME280;4897;43.570;27.832;2022-07-29T05:07:54;99122.94;;;23.09;100.00
9717;BME280;4897;43.570;27.832;2022-07-29T05:10:21;99126.06;;;23.32;100.00
9717;BME280;4897;43.570;27.832;2022-07-29T05:12:48;99115.81;;;23.40;100.00
9717;BME280;4897;43.570;27.832;2022-07-29T05:15:17;99125.00;;;23.52;100.00
9717;BME280;4897;43.570;27.832;2022-07-29T05:17:44;99128.28;;;23.74;100.00
9717;BME280;4897;43.570;27.832;2022-07-29T05:20:12;99137.28;;;23.94;100.00
9717;BME280;4897;43.570;27.832;2022-07-29T05:22:39;99133.66;;;24.13;100.00
9717;BME280;4897;43.570;27.832;2022-07-29T05:25:07;99120.53;;;24.28;100.00
9717;BME280;4897;43.570;27.832;2022-07-29T05:27:35;99118.69;;;24.53;100.00
9717;BME280;4897;43.570;27.832;2022-07-29T05:30:03;99132.47;;;24.78;100.00
9717;BME280;4897;43.570;27.832;2022-07-29T05:32:30;99128.84;;;25.09;100.00
9717;BME280;4897;43.570;27.832;2022-07-29T05:34:57;99116.84;;;25.34;100.00
9717;BME280;4897;43.570;27.832;2022-07-29T05:37:25;99131.88;;;25.86;100.00
9717;BME280;4897;43.570;27.832;2022-07-29T05:39:52;99131.59;;;26.42;100.00
9717;BME280;4897;43.570;27.832;2022-07-29T05:42:19;99132.00;;;27.40;100.00
9717;BME280;4897;43.570;27.832;2022-07-29T05:44:46;99129.69;;;27.60;100.00
9717;BME280;4897;43.570;27.832;2022-07-29T05:47:14;99126.41;;;27.35;100.00
9717;BME280;4897;43.570;27.832;2022-07-29T05:49:41;99128.03;;;27.47;100.00
9717;BME280;4897;43.570;27.832;2022-07-29T05:52:08;99130.41;;;27.90;100.00
9717;BME280;4897;43.570;27.832;2022-07-29T05:54:37;99132.28;;;28.97;100.00
9717;BME280;4897;43.570;27.832;2022-07-29T05:57:04;99131.56;;;29.52;100.00
9717;BME280;4897;43.570;27.832;2022-07-29T05:59:31;99139.72;;;30.23;99.00
9717;BME280;4897;43.570;27.832;2022-07-29T06:01:58;99136.84;;;30.56;87.84
9717;BME280;4897;43.570;27.832;2022-07-29T06:04:25;99129.84;;;30.97;87.74
9717;BME280;4897;43.570;27.832;2022-07-29T06:06:52;99128.69;;;31.25;74.14
9717;BME280;4897;43.570;27.832;2022-07-29T06:09:19;99142.53;;;31.30;73.47
9717;BME280;4897;43.570;27.832;2022-07-29T06:11:49;99140.88;;;31.29;74.96
9717;BME280;4897;43.570;27.832;2022-07-29T06:14:16;99149.06;;;31.87;67.97
9717;BME280;4897;43.570;27.832;2022-07-29T06:16:43;99132.59;;;32.07;63.25
9717;BME280;4897;43.570;27.832;2022-07-29T06:19:10;99129.25;;;32.05;61.20
9717;BME280;4897;43.570;27.832;2022-07-29T06:21:41;99137.75;;;32.51;57.54
9717;BME280;4897;43.570;27.832;2022-07-29T06:24:10;99144.16;;;32.56;54.56
9717;BME280;4897;43.570;27.832;2022-07-29T06:26:37;99132.06;;;32.10;57.14
9717;BME280;4897;43.570;27.832;2022-07-29T06:29:06;99132.09;;;31.37;61.17
9717;BME280;4897;43.570;27.832;2022-07-29T06:31:33;99127.63;;;30.72;65.81
9717;BME280;4897;43.570;27.832;2022-07-29T06:34:00;99140.53;;;30.40;62.60
9717;BME280;4897;43.570;27.832;2022-07-29T06:36:27;99131.22;;;30.03;68.62
9717;BME280;4897;43.570;27.832;2022-07-29T06:38:54;99136.06;;;29.96;67.42
9717;BME280;4897;43.570;27.832;2022-07-29T06:41:21;99132.91;;;29.87;65.74
9717;BME280;4897;43.570;27.832;2022-07-29T06:43:49;99135.22;;;29.74;62.44
9717;BME280;4897;43.570;27.832;2022-07-29T06:46:19;99134.69;;;29.60;62.45
9717;BME280;4897;43.570;27.832;2022-07-29T06:48:46;99124.84;;;29.48;63.63
9717;BME280;4897;43.570;27.832;2022-07-29T06:51:14;99139.31;;;29.55;61.85
9717;BME280;4897;43.570;27.832;2022-07-29T06:53:41;99130.97;;;29.50;64.88
9717;BME280;4897;43.570;27.832;2022-07-29T06:56:09;99121.03;;;29.49;63.12
9717;BME280;4897;43.570;27.832;2022-07-29T06:58:38;99134.81;;;29.49;62.54
9717;BME280;4897;43.570;27.832;2022-07-29T07:01:05;99140.31;;;29.49;61.82
9717;BME280;4897;43.570;27.832;2022-07-29T07:03:37;99134.81;;;29.49;59.91
9717;BME280;4897;43.570;27.832;2022-07-29T07:06:10;99121.75;;;29.61;60.09
9717;BME280;4897;43.570;27.832;2022-07-29T07:08:37;99143.13;;;29.70;57.69
9717;BME280;4897;43.570;27.832;2022-07-29T07:11:04;99125.44;;;29.66;58.43
9717;BME280;4897;43.570;27.832;2022-07-29T07:13:32;99129.78;;;29.79;56.03
9717;BME280;4897;43.570;27.832;2022-07-29T07:16:00;99119.97;;;29.88;55.54
9717;BME280;4897;43.570;27.832;2022-07-29T07:18:27;99132.72;;;29.94;55.33
9717;BME280;4897;43.570;27.832;2022-07-29T07:20:56;99132.34;;;30.07;54.27
9717;BME280;4897;43.570;27.832;2022-07-29T07:23:23;99144.09;;;30.19;56.35
9717;BME280;4897;43.570;27.832;2022-07-29T07:25:50;99114.28;;;30.16;54.79
9717;BME280;4897;43.570;27.832;2022-07-29T07:28:18;99137.97;;;30.34;54.62
9717;BME280;4897;43.570;27.832;2022-07-29T07:30:45;99131.53;;;30.50;54.85
9717;BME280;4897;43.570;27.832;2022-07-29T07:33:12;99125.56;;;30.58;52.47
9717;BME280;4897;43.570;27.832;2022-07-29T07:35:40;99132.47;;;30.60;51.60
9717;BME280;4897;43.570;27.832;2022-07-29T07:38:08;99081.13;;;30.33;51.46
9717;BME280;4897;43.570;27.832;2022-07-29T07:40:35;99141.28;;;30.84;51.35
9717;BME280;4897;43.570;27.832;2022-07-29T07:43:02;99139.09;;;30.86;50.81
9717;BME280;4897;43.570;27.832;2022-07-29T07:45:29;99137.66;;;30.84;51.55
9717;BME280;4897;43.570;27.832;2022-07-29T07:47:58;99143.94;;;31.01;51.74
9717;BME280;4897;43.570;27.832;2022-07-29T07:50:25;99133.84;;;31.43;48.90
9717;BME280;4897;43.570;27.832;2022-07-29T07:52:54;99130.63;;;32.03;46.04
9717;BME280;4897;43.570;27.832;2022-07-29T07:55:25;99131.28;;;33.52;42.46
9717;BME280;4897;43.570;27.832;2022-07-29T07:57:52;99137.63;;;35.34;37.30
9717;BME280;4897;43.570;27.832;2022-07-29T08:00:20;99136.31;;;36.98;35.02
9717;BME280;4897;43.570;27.832;2022-07-29T08:02:47;99134.19;;;38.18;32.53
9717;BME280;4897;43.570;27.832;2022-07-29T08:05:14;99135.69;;;38.79;31.81
9717;BME280;4897;43.570;27.832;2022-07-29T08:07:44;99133.56;;;38.49;31.50
9717;BME280;4897;43.570;27.832;2022-07-29T08:10:12;99139.69;;;39.00;31.30
9717;BME280;4897;43.570;27.832;2022-07-29T08:12:40;99128.53;;;39.44;30.16
9717;BME280;4897;43.570;27.832;2022-07-29T08:15:08;99136.09;;;39.22;30.54
9717;BME280;4897;43.570;27.832;2022-07-29T08:17:35;99126.00;;;40.18;30.06
9717;BME280;4897;43.570;27.832;2022-07-29T08:20:03;99140.09;;;39.51;30.06
9717;BME280;4897;43.570;27.832;2022-07-29T08:22:30;99140.69;;;39.18;30.58
9717;BME280;4897;43.570;27.832;2022-07-29T08:24:57;99134.00;;;39.71;30.16
9717;BME280;4897;43.570;27.832;2022-07-29T08:27:23;99121.69;;;40.68;28.86
9717;BME280;4897;43.570;27.832;2022-07-29T08:29:53;99115.78;;;41.04;28.38
9717;BME280;4897;43.570;27.832;2022-07-29T08:32:21;99133.59;;;41.08;27.37
9717;BME280;4897;43.570;27.832;2022-07-29T08:34:48;99129.00;;;40.86;27.97
9717;BME280;4897;43.570;27.832;2022-07-29T08:37:15;99108.53;;;40.29;28.29
9717;BME280;4897;43.570;27.832;2022-07-29T08:39:42;99126.28;;;40.64;28.43
9717;BME280;4897;43.570;27.832;2022-07-29T08:42:10;99129.22;;;40.03;29.34
9717;BME280;4897;43.570;27.832;2022-07-29T08:44:38;99129.13;;;39.55;29.82
9717;BME280;4897;43.570;27.832;2022-07-29T08:47:06;99132.22;;;38.95;30.60
9717;BME280;4897;43.570;27.832;2022-07-29T08:49:34;99124.31;;;40.17;29.16
9717;BME280;4897;43.570;27.832;2022-07-29T08:52:02;99119.06;;;41.06;28.60
9717;BME280;4897;43.570;27.832;2022-07-29T08:54:29;99121.81;;;41.83;27.30
9717;BME280;4897;43.570;27.832;2022-07-29T08:56:57;99114.97;;;41.12;28.44
9717;BME280;4897;43.570;27.832;2022-07-29T08:59:27;99097.16;;;41.88;27.99
9717;BME280;4897;43.570;27.832;2022-07-29T09:01:54;99114.53;;;43.40;25.95
9717;BME280;4897;43.570;27.832;2022-07-29T09:04:29;99107.19;;;44.04;25.37
9717;BME280;4897;43.570;27.832;2022-07-29T09:06:57;99096.13;;;44.35;25.19
9717;BME280;4897;43.570;27.832;2022-07-29T09:09:27;99098.97;;;43.87;25.53
9717;BME280;4897;43.570;27.832;2022-07-29T09:11:54;99096.50;;;44.34;25.22
9717;BME280;4897;43.570;27.832;2022-07-29T09:14:21;99102.03;;;44.67;24.71
9717;BME280;4897;43.570;27.832;2022-07-29T09:16:51;99090.75;;;44.30;24.79
9717;BME280;4897;43.570;27.832;2022-07-29T09:19:24;99100.38;;;44.17;25.18
9717;BME280;4897;43.570;27.832;2022-07-29T09:21:53;99094.94;;;43.88;25.11
9717;BME280;4897;43.570;27.832;2022-07-29T09:24:43;99105.81;;;44.10;24.58
9717;BME280;4897;43.570;27.832;2022-07-29T09:27:18;99091.00;;;44.13;24.72
9717;BME280;4897;43.570;27.832;2022-07-29T09:29:46;99099.47;;;44.13;24.63
9717;BME280;4897;43.570;27.832;2022-07-29T09:32:15;99097.56;;;44.05;24.67
9717;BME280;4897;43.570;27.832;2022-07-29T09:34:42;99093.31;;;43.87;25.09
9717;BME280;4897;43.570;27.832;2022-07-29T09:37:25;99101.03;;;43.66;25.29
9717;BME280;4897;43.570;27.832;2022-07-29T09:39:53;99097.81;;;44.24;24.67
9717;BME280;4897;43.570;27.832;2022-07-29T09:42:27;99085.66;;;44.72;24.28
9717;BME280;4897;43.570;27.832;2022-07-29T09:44:55;99084.94;;;45.15;24.03
9717;BME280;4897;43.570;27.832;2022-07-29T09:47:22;99089.59;;;45.35;24.18
9717;BME280;4897;43.570;27.832;2022-07-29T09:49:54;99084.13;;;45.42;23.62
9717;BME280;4897;43.570;27.832;2022-07-29T09:52:24;99090.34;;;45.91;23.31
9717;BME280;4897;43.570;27.832;2022-07-29T09:54:52;99091.25;;;45.95;23.21
9717;BME280;4897;43.570;27.832;2022-07-29T09:57:27;99089.56;;;44.68;23.92
9717;BME280;4897;43.570;27.832;2022-07-29T09:59:59;99087.53;;;45.20;23.62
9717;BME280;4897;43.570;27.832;2022-07-29T10:02:30;99049.72;;;44.97;23.61
9717;BME280;4897;43.570;27.832;2022-07-29T10:04:58;99082.53;;;45.57;23.53
9717;BME280;4897;43.570;27.832;2022-07-29T10:07:42;99079.22;;;45.39;24.03
9717;BME280;4897;43.570;27.832;2022-07-29T10:10:10;99074.88;;;45.57;23.45
9717;BME280;4897;43.570;27.832;2022-07-29T10:12:48;99070.19;;;46.08;23.28
9717;BME280;4897;43.570;27.832;2022-07-29T10:15:15;99069.53;;;46.30;22.65
9717;BME280;4897;43.570;27.832;2022-07-29T10:17:42;99057.94;;;46.20;22.63
9717;BME280;4897;43.570;27.832;2022-07-29T10:20:10;99066.50;;;46.39;22.91
9717;BME280;4897;43.570;27.832;2022-07-29T10:22:39;99062.13;;;46.26;22.23
9717;BME280;4897;43.570;27.832;2022-07-29T10:25:07;99051.28;;;45.81;22.58
9717;BME280;4897;43.570;27.832;2022-07-29T10:27:35;99065.03;;;44.96;23.47
9717;BME280;4897;43.570;27.832;2022-07-29T10:30:03;99060.31;;;46.18;22.97
9717;BME280;4897;43.570;27.832;2022-07-29T10:32:40;99061.22;;;46.22;22.90
9717;BME280;4897;43.570;27.832;2022-07-29T10:35:31;99058.00;;;46.39;22.35
9717;BME280;4897;43.570;27.832;2022-07-29T10:41:00;99061.97;;;45.44;23.31
9717;BME280;4897;43.570;27.832;2022-07-29T10:43:48;99059.31;;;42.24;25.71
9717;BME280;4897;43.570;27.832;2022-07-29T10:46:23;99067.16;;;40.35;28.00
9717;BME280;4897;43.570;27.832;2022-07-29T10:49:13;99051.84;;;41.35;27.53
9717;BME280;4897;43.570;27.832;2022-07-29T10:52:04;99051.69;;;43.60;25.41
9717;BME280;4897;43.570;27.832;2022-07-29T10:54:40;99049.47;;;42.09;26.50
9717;BME280;4897;43.570;27.832;2022-07-29T10:57:25;99039.69;;;42.15;26.80
9717;BME280;4897;43.570;27.832;2022-07-29T11:00:27;99053.13;;;43.66;25.68
9717;BME280;4897;43.570;27.832;2022-07-29T11:02:55;99039.59;;;42.73;26.35
9717;BME280;4897;43.570;27.832;2022-07-29T11:05:23;99041.16;;;44.54;25.16
9717;BME280;4897;43.570;27.832;2022-07-29T11:08:17;99030.59;;;45.61;23.76
9717;BME280;4897;43.570;27.832;2022-07-29T11:10:47;99035.78;;;45.90;23.68
9717;BME280;4897;43.570;27.832;2022-07-29T11:13:44;99036.00;;;44.19;24.74
9717;BME280;4897;43.570;27.832;2022-07-29T11:16:12;99039.19;;;42.13;26.90
9717;BME280;4897;43.570;27.832;2022-07-29T11:21:41;99037.28;;;39.12;30.36
9717;BME280;4897;43.570;27.832;2022-07-29T11:24:16;99013.25;;;40.21;29.51
9717;BME280;4897;43.570;27.832;2022-07-29T11:26:44;99013.22;;;42.45;27.24
9717;BME280;4897;43.570;27.832;2022-07-29T11:29:18;98983.88;;;43.89;25.71
9717;BME280;4897;43.570;27.832;2022-07-29T11:31:47;99010.44;;;45.04;23.88
9717;BME280;4897;43.570;27.832;2022-07-29T11:34:28;99010.84;;;45.34;24.03
9717;BME280;4897;43.570;27.832;2022-07-29T11:37:19;99017.47;;;45.84;23.10
9717;BME280;4897;43.570;27.832;2022-07-29T11:40:08;99013.19;;;45.59;22.76
9717;BME280;4897;43.570;27.832;2022-07-29T11:42:44;99029.59;;;44.98;23.71
9717;BME280;4897;43.570;27.832;2022-07-29T11:45:20;99001.88;;;46.06;22.49
9717;BME280;4897;43.570;27.832;2022-07-29T11:47:50;99011.59;;;47.16;22.18
9717;BME280;4897;43.570;27.832;2022-07-29T11:50:35;99010.59;;;46.67;22.17
9717;BME280;4897;43.570;27.832;2022-07-29T11:53:10;99006.66;;;46.94;21.57
9717;BME280;4897;43.570;27.832;2022-07-29T11:55:38;99009.28;;;47.22;21.36
9717;BME280;4897;43.570;27.832;2022-07-29T11:58:07;98961.44;;;47.17;21.62
9717;BME280;4897;43.570;27.832;2022-07-29T12:00:35;99006.19;;;47.30;20.93
9717;BME280;4897;43.570;27.832;2022-07-29T12:03:04;98992.69;;;47.43;21.59
9717;BME280;4897;43.570;27.832;2022-07-29T12:05:34;99002.09;;;47.47;21.46
9717;BME280;4897;43.570;27.832;2022-07-29T12:08:10;98988.69;;;47.44;20.98
9717;BME280;4897;43.570;27.832;2022-07-29T12:10:42;98986.47;;;47.57;20.83
9717;BME280;4897;43.570;27.832;2022-07-29T12:13:13;98994.38;;;47.25;21.21
9717;BME280;4897;43.570;27.832;2022-07-29T12:15:40;98986.94;;;46.98;21.27
9717;BME280;4897;43.570;27.832;2022-07-29T12:18:16;98978.34;;;46.94;21.43
9717;BME280;4897;43.570;27.832;2022-07-29T12:20:46;98981.38;;;47.24;21.21
9717;BME280;4897;43.570;27.832;2022-07-29T12:23:14;98982.22;;;47.70;21.02
9717;BME280;4897;43.570;27.832;2022-07-29T12:25:42;98967.44;;;47.80;21.14
9717;BME280;4897;43.570;27.832;2022-07-29T12:28:12;98972.81;;;47.39;21.28
9717;BME280;4897;43.570;27.832;2022-07-29T12:30:44;98966.88;;;47.71;20.91
9717;BME280;4897;43.570;27.832;2022-07-29T12:33:17;98970.72;;;47.82;21.10
9717;BME280;4897;43.570;27.832;2022-07-29T12:35:47;98957.50;;;48.45;20.67
9717;BME280;4897;43.570;27.832;2022-07-29T12:38:15;98961.72;;;48.02;21.23
9717;BME280;4897;43.570;27.832;2022-07-29T12:40:43;98960.22;;;48.38;20.61
9717;BME280;4897;43.570;27.832;2022-07-29T12:43:13;98958.91;;;48.58;20.52
9717;BME280;4897;43.570;27.832;2022-07-29T12:45:42;98943.94;;;47.79;20.68
9717;BME280;4897;43.570;27.832;2022-07-29T12:48:10;98954.75;;;46.29;21.83
9717;BME280;4897;43.570;27.832;2022-07-29T12:50:55;98954.44;;;46.00;22.38
9717;BME280;4897;43.570;27.832;2022-07-29T12:53:22;98950.22;;;46.82;21.90
9717;BME280;4897;43.570;27.832;2022-07-29T12:55:51;98953.72;;;46.56;21.53
9717;BME280;4897;43.570;27.832;2022-07-29T12:58:33;98952.00;;;46.33;21.57
9717;BME280;4897;43.570;27.832;2022-07-29T13:01:11;98937.06;;;45.66;22.34
9717;BME280;4897;43.570;27.832;2022-07-29T13:03:49;98943.28;;;46.07;21.87
9717;BME280;4897;43.570;27.832;2022-07-29T13:06:36;98948.88;;;46.57;21.44
9717;BME280;4897;43.570;27.832;2022-07-29T13:09:09;98945.31;;;46.79;21.33
9717;BME280;4897;43.570;27.832;2022-07-29T13:11:41;98943.31;;;47.21;21.00
9717;BME280;4897;43.570;27.832;2022-07-29T13:14:13;98938.16;;;47.50;20.47
9717;BME280;4897;43.570;27.832;2022-07-29T13:17:02;98943.28;;;47.40;20.74
9717;BME280;4897;43.570;27.832;2022-07-29T13:19:34;98930.13;;;47.78;19.94
9717;BME280;4897;43.570;27.832;2022-07-29T13:22:01;98938.50;;;47.93;20.75
9717;BME280;4897;43.570;27.832;2022-07-29T13:24:28;98943.16;;;47.56;20.13
9717;BME280;4897;43.570;27.832;2022-07-29T13:26:55;98940.81;;;47.39;20.61
9717;BME280;4897;43.570;27.832;2022-07-29T13:29:24;98939.34;;;47.03;20.71
9717;BME280;4897;43.570;27.832;2022-07-29T13:31:51;98946.66;;;47.27;20.60